Time;durP1;ratioP1;P1;durP2;ratioP2;P2;SDS_P1;SDS_P2;PMS_P1;PMS_P2;Temp;Humidity;BMP_temperature;BMP_pressure;BME280_temperature;BME280_humidity;BME280_pressure;Samples;Min_cycle;Max_cycle;Signal;HPM_P1;HPM_P2
2022/08/05 07:58:57;;;;;;;9.18;3.92;;;;;;;20.49;73.00;101526.03;5387112;27;20205;-68
2022/08/05 08:01:28;;;;;;;6.32;3.50;;;;;;;20.38;72.12;101525.63;5364747;27;20058;-68
2022/08/05 08:03:59;;;;;;;8.43;3.25;;;;;;;20.39;73.33;101530.88;5356711;27;20034;-68
2022/08/05 08:06:34;;;;;;;6.25;3.35;;;;;;;20.37;72.51;101530.41;5361242;27;20030;-68
2022/08/05 08:09:05;;;;;;;7.07;3.40;;;;;;;20.18;72.52;101533.66;5358838;27;20431;-68
2022/08/05 08:11:36;;;;;;;4.93;2.90;;;;;;;20.13;72.07;101536.66;5364612;27;20058;-68
2022/08/05 08:14:08;;;;;;;4.88;2.80;;;;;;;20.31;72.42;101531.75;5352373;27;20436;-68
2022/08/05 08:16:39;;;;;;;7.50;3.45;;;;;;;20.37;71.35;101536.03;5363602;27;20106;-69
2022/08/05 08:19:11;;;;;;;7.55;2.95;;;;;;;20.45;70.76;101541.97;5357681;27;20545;-68
2022/08/05 08:21:42;;;;;;;6.95;2.30;;;;;;;20.79;71.41;101546.59;5346436;27;20023;-68
2022/08/05 08:24:13;;;;;;;3.83;2.78;;;;;;;20.89;69.02;101550.97;5344713;27;20023;-68
2022/08/05 08:26:45;;;;;;;5.95;2.83;;;;;;;20.69;68.41;101553.47;5343377;27;20080;-68
2022/08/05 08:29:16;;;;;;;5.10;3.08;;;;;;;20.89;69.70;101550.97;5342706;27;20441;-69
2022/08/05 08:31:51;;;;;;;4.47;2.20;;;;;;;20.83;68.29;101562.47;5354298;27;20011;-68
2022/08/05 08:34:25;;;;;;;5.35;2.72;;;;;;;20.93;67.45;101561.25;5365330;27;20072;-69
2022/08/05 08:36:56;;;;;;;5.78;2.40;;;;;;;20.95;66.53;101566.53;5363110;27;20023;-69
2022/08/05 08:39:30;;;;;;;3.80;2.40;;;;;;;21.08;67.09;101568.25;5354694;27;20046;-69
2022/08/05 08:42:03;;;;;;;7.10;2.55;;;;;;;21.20;67.51;101573.16;5341459;27;20115;-69
2022/08/05 08:44:38;;;;;;;4.68;1.80;;;;;;;21.18;66.66;101572.66;5342395;27;20108;-69
2022/08/05 08:47:10;;;;;;;5.03;2.33;;;;;;;21.07;65.48;101580.72;5363667;27;20079;-69
2022/08/05 08:49:44;;;;;;;6.45;2.88;;;;;;;20.88;66.83;101583.16;5342362;27;20374;-69
2022/08/05 08:52:23;;;;;;;8.27;2.53;;;;;;;20.97;66.58;101581.13;5343022;28;20080;-69
2022/08/05 08:54:56;;;;;;;6.60;2.10;;;;;;;20.97;66.29;101590.41;5354231;27;20026;-68
2022/08/05 08:57:27;;;;;;;3.83;2.95;;;;;;;21.26;67.69;101595.16;5359354;27;20047;-68
2022/08/05 09:00:03;;;;;;;5.00;2.20;;;;;;;21.23;66.42;101601.50;5364022;27;20504;-71
2022/08/05 09:02:35;;;;;;;3.30;2.30;;;;;;;21.17;65.67;101596.41;5350187;27;20087;-71
2022/08/05 09:05:09;;;;;;;3.95;2.33;;;;;;;21.16;66.34;101600.38;5341824;28;20023;-71
2022/08/05 09:07:41;;;;;;;14.10;12.70;;;;;;;21.32;66.08;101609.91;5342493;27;20023;-72
2022/08/05 09:10:12;;;;;;;15.85;14.25;;;;;;;21.23;66.01;101609.13;5344484;27;20284;-69
2022/08/05 09:12:44;;;;;;;95.35;85.60;;;;;;;21.27;65.98;101608.09;5333564;27;20110;-71
2022/08/05 09:15:15;;;;;;;6.18;2.80;;;;;;;21.15;64.82;101610.84;5342014;27;20031;-70
2022/08/05 09:17:47;;;;;;;6.07;2.60;;;;;;;21.40;64.73;101606.19;5345913;27;20185;-70
2022/08/05 09:20:18;;;;;;;6.68;2.20;;;;;;;21.56;64.99;101609.22;5349166;27;20019;-70
2022/08/05 09:23:12;;;;;;;5.53;2.55;;;;;;;21.67;65.16;101620.88;5341006;27;20016;-71
2022/08/05 09:25:49;;;;;;;4.93;2.40;;;;;;;21.49;65.48;101620.22;5329482;27;20046;-71
2022/08/05 09:28:24;;;;;;;3.47;2.10;;;;;;;21.26;65.86;101626.19;5348623;27;20030;-73
2022/08/05 09:30:57;;;;;;;4.88;2.55;;;;;;;21.30;65.66;101623.50;5335449;27;20032;-72
2022/08/05 09:33:29;;;;;;;4.03;2.10;;;;;;;21.18;63.94;101627.06;5341577;27;20030;-72
2022/08/05 09:36:07;;;;;;;3.10;1.80;;;;;;;21.14;65.48;101634.59;5347510;27;20471;-72
2022/08/05 09:38:54;;;;;;;3.03;1.60;;;;;;;21.16;64.93;101628.59;5348026;27;20054;-72
2022/08/05 09:41:26;;;;;;;21.25;19.08;;;;;;;21.31;64.65;101627.16;5349311;27;20023;-72
2022/08/05 09:43:57;;;;;;;4.05;2.08;;;;;;;21.35;62.64;101636.59;5349176;27;20023;-73
2022/08/05 09:46:33;;;;;;;6.75;2.40;;;;;;;21.68;63.90;101637.50;5333917;27;20038;-69
2022/08/05 09:49:23;;;;;;;3.58;1.95;;;;;;;21.66;63.35;101637.00;5332030;27;20394;-69
2022/08/05 09:51:55;;;;;;;3.50;1.90;;;;;;;21.91;62.99;101635.09;5342030;27;20027;-68
2022/08/05 09:54:32;;;;;;;3.83;1.80;;;;;;;21.88;60.38;101637.78;5345091;27;20369;-69
2022/08/05 09:57:03;;;;;;;3.15;1.52;;;;;;;22.00;60.86;101629.34;5346487;27;20061;-69
2022/08/05 09:59:34;;;;;;;5.10;1.90;;;;;;;22.11;60.24;101644.69;5335930;27;20019;-69
2022/08/05 10:02:07;;;;;;;5.13;2.28;;;;;;;21.99;60.04;101646.66;5347555;27;20084;-69
2022/08/05 10:04:39;;;;;;;3.45;1.50;;;;;;;21.94;59.39;101644.88;5341161;27;20028;-69
2022/08/05 10:07:11;;;;;;;5.68;1.52;;;;;;;21.82;54.99;101647.66;5347508;27;20023;-69
2022/08/05 10:09:54;;;;;;;3.38;2.22;;;;;;;21.79;54.35;101652.00;5348513;27;20458;-69
2022/08/05 10:12:25;;;;;;;4.75;3.13;;;;;;;21.93;57.24;101652.53;5348296;27;20046;-69
2022/08/05 10:15:17;;;;;;;2.15;1.50;;;;;;;21.80;54.45;101655.63;5345589;27;20430;-69
2022/08/05 10:18:08;;;;;;;1.90;1.15;;;;;;;21.97;53.96;101649.81;5326586;28;20034;-69
2022/08/05 10:20:55;;;;;;;60.45;43.78;;;;;;;22.19;53.06;101656.22;5328334;27;20122;-70
2022/08/05 10:23:35;;;;;;;8.10;5.85;;;;;;;22.23;51.62;101660.03;5346876;27;20042;-71
2022/08/05 10:26:11;;;;;;;3.35;2.13;;;;;;;22.14;51.25;101652.47;5346131;27;20023;-71
2022/08/05 10:28:45;;;;;;;2.42;1.20;;;;;;;22.18;51.61;101666.72;5334242;27;20019;-71
2022/08/05 10:31:22;;;;;;;27.17;24.23;;;;;;;22.24;51.93;101667.34;5346400;27;20027;-72
2022/08/05 10:33:53;;;;;;;48.30;33.30;;;;;;;22.15;49.20;101667.41;5333257;27;20032;-71
2022/08/05 10:36:25;;;;;;;3.65;1.10;;;;;;;22.17;48.17;101665.06;5326057;27;20089;-69
2022/08/05 10:39:01;;;;;;;6.07;4.38;;;;;;;22.26;47.82;101667.81;5339621;27;20458;-69
2022/08/05 10:41:55;;;;;;;1.13;0.82;;;;;;;22.26;47.11;101667.81;5331018;27;20023;-70
2022/08/05 10:44:29;;;;;;;1.80;1.10;;;;;;;22.25;48.19;101672.66;5325035;28;20036;-68
2022/08/05 10:47:10;;;;;;;1.80;1.20;;;;;;;22.46;48.24;101668.91;5331742;27;20035;-70
2022/08/05 10:50:01;;;;;;;2.63;1.70;;;;;;;22.49;49.21;101669.03;5346133;27;20027;-70
2022/08/05 10:52:40;;;;;;;2.47;1.30;;;;;;;22.44;48.82;101677.72;5329975;27;20031;-71
2022/08/05 10:55:12;;;;;;;12.63;11.43;;;;;;;22.47;47.00;101677.06;5339767;27;20019;-73
2022/08/05 10:57:45;;;;;;;2.55;1.92;;;;;;;22.41;45.12;101677.63;5332962;27;20091;-74
2022/08/05 11:00:21;;;;;;;78.85;71.53;;;;;;;22.41;47.75;101686.09;5347651;27;20023;-74
2022/08/05 11:03:05;;;;;;;5.07;2.53;;;;;;;22.36;45.21;101692.78;5340523;27;20439;-71
2022/08/05 11:05:37;;;;;;;3.45;1.10;;;;;;;22.32;44.72;101680.56;5325435;28;20019;-72
2022/08/05 11:08:11;;;;;;;1.27;0.90;;;;;;;22.41;44.97;101689.75;5325957;28;20020;-71
2022/08/05 11:10:43;;;;;;;2.40;1.23;;;;;;;22.36;43.86;101696.44;5336248;27;20023;-70
2022/08/05 11:13:42;;;;;;;1.67;1.25;;;;;;;22.39;43.79;101692.09;5330725;27;20193;-71
2022/08/05 11:16:20;;;;;;;3.70;1.10;;;;;;;22.37;44.10;101694.47;5329426;27;20031;-72
2022/08/05 11:19:28;;;;;;;4.18;1.15;;;;;;;22.51;44.32;101700.59;5324785;28;20032;-70
2022/08/05 11:22:38;;;;;;;1.63;0.98;;;;;;;22.63;43.14;101705.47;5323236;27;20027;-73
2022/08/05 11:25:31;;;;;;;1.25;0.95;;;;;;;22.57;42.22;101698.38;5346603;27;20359;-72
2022/08/05 11:28:11;;;;;;;1.20;0.88;;;;;;;22.71;41.66;101698.88;5345587;27;20035;-71
2022/08/05 11:30:55;;;;;;;4.03;1.08;;;;;;;22.73;42.38;101707.00;5329279;27;20079;-71
2022/08/05 11:33:35;;;;;;;1.80;0.85;;;;;;;22.73;42.39;101712.66;5342483;27;20056;-71
2022/08/05 11:36:09;;;;;;;1.40;0.82;;;;;;;22.70;43.25;101702.88;5346594;27;20106;-71
2022/08/05 11:38:40;;;;;;;2.08;0.93;;;;;;;22.70;43.24;101708.53;5334508;27;20482;-71
2022/08/05 11:41:15;;;;;;;4.40;2.47;;;;;;;22.90;44.47;101712.41;5341574;27;20031;-71
2022/08/05 11:43:57;;;;;;;6.65;2.00;;;;;;;23.05;44.60;101712.94;5346039;27;20347;-72
2022/08/05 11:46:34;;;;;;;4.72;1.75;;;;;;;22.69;45.69;101723.00;5343302;27;20027;-71
2022/08/05 11:49:07;;;;;;;2.15;1.02;;;;;;;22.66;46.50;101727.38;5326478;27;21827;-71
2022/08/05 11:51:43;;;;;;;15.60;11.35;;;;;;;22.56;47.24;101730.66;5325222;28;20554;-71
2022/08/05 11:54:23;;;;;;;3.47;1.20;;;;;;;22.44;46.82;101730.63;5339218;27;20465;-71
2022/08/05 11:56:56;;;;;;;2.83;1.30;;;;;;;22.36;47.10;101747.31;5346364;28;20096;-71
2022/08/05 11:59:34;;;;;;;3.97;1.88;;;;;;;22.42;47.32;101747.94;5335789;28;20057;-71
2022/08/05 12:02:07;;;;;;;3.47;1.40;;;;;;;22.49;47.14;101756.66;5345617;27;20149;-70
2022/08/05 12:04:41;;;;;;;4.05;1.35;;;;;;;22.76;46.04;101758.00;5326817;28;20024;-72
2022/08/05 12:07:15;;;;;;;4.05;1.42;;;;;;;22.66;45.17;101771.78;5322889;28;20042;-71
2022/08/05 12:09:56;;;;;;;3.30;1.20;;;;;;;22.62;44.84;101768.00;5332193;28;20046;-70
2022/08/05 12:12:28;;;;;;;4.28;1.88;;;;;;;22.72;44.19;101768.34;5340606;27;20026;-71
2022/08/05 12:14:59;;;;;;;2.63;1.30;;;;;;;22.65;43.98;101778.59;5324185;28;20051;-72
2022/08/05 12:17:34;;;;;;;3.45;1.23;;;;;;;22.55;43.25;101772.22;5327196;28;20032;-72
2022/08/05 12:20:06;;;;;;;1.85;0.85;;;;;;;22.55;42.97;101779.88;5336511;27;20115;-69
2022/08/05 12:22:38;;;;;;;2.58;1.50;;;;;;;22.68;42.83;101783.56;5331057;28;20098;-69
2022/08/05 12:25:09;;;;;;;2.53;1.08;;;;;;;22.93;41.43;101793.75;5346065;28;20031;-71
2022/08/05 12:27:46;;;;;;;2.85;0.80;;;;;;;22.76;39.58;101788.28;5343170;27;20380;-70
2022/08/05 12:30:19;;;;;;;2.65;1.00;;;;;;;22.75;40.28;101801.59;5324887;28;20048;-69
2022/08/05 12:32:54;;;;;;;1.77;0.98;;;;;;;22.83;40.15;101791.38;5327585;28;20023;-69
2022/08/05 12:35:25;;;;;;;2.72;0.90;;;;;;;22.78;39.68;101811.41;5333213;28;20023;-69
2022/08/05 12:37:57;;;;;;;1.75;1.05;;;;;;;22.68;38.74;101814.66;5331892;28;20031;-69
2022/08/05 12:40:29;;;;;;;3.13;0.90;;;;;;;22.91;39.42;101804.59;5343092;28;20323;-69
2022/08/05 12:43:00;;;;;;;5.63;1.65;;;;;;;23.04;38.98;101818.78;5345104;27;20023;-68
2022/08/05 12:45:31;;;;;;;2.08;1.20;;;;;;;23.12;38.33;101817.84;5347906;27;20455;-69
2022/08/05 12:48:15;;;;;;;2.20;0.90;;;;;;;23.38;38.44;101818.31;5328699;27;20028;-69
2022/08/05 12:51:09;;;;;;;6.88;4.18;;;;;;;23.46;39.02;101824.22;5329004;28;20110;-71
2022/08/05 12:53:44;;;;;;;1.75;1.08;;;;;;;23.33;38.07;101821.38;5331903;27;20027;-70
2022/08/05 12:56:23;;;;;;;2.90;0.90;;;;;;;23.48;38.69;101828.34;5340516;27;20027;-71
2022/08/05 12:59:43;;;;;;;4.53;0.93;;;;;;;23.62;38.13;101827.97;5332931;27;20493;-70
2022/08/05 13:02:25;;;;;;;1.60;0.82;;;;;;;23.65;37.73;101821.63;5241108;28;20463;-70
2022/08/05 13:04:56;;;;;;;1.63;1.10;;;;;;;23.69;38.28;101833.88;5242236;28;20133;-71
2022/08/05 13:07:28;;;;;;;2.38;1.10;;;;;;;23.84;37.16;101827.50;5308756;27;20122;-74
2022/08/05 13:09:59;;;;;;;14.43;12.93;;;;;;;23.96;36.44;101831.50;5346347;27;20381;-73
2022/08/05 13:12:38;;;;;;;28.13;24.85;;;;;;;23.71;36.43;101833.53;5348007;27;20111;-73
2022/08/05 13:15:12;;;;;;;5.88;3.03;;;;;;;24.17;39.37;101837.81;5350123;27;20023;-72
2022/08/05 13:17:52;;;;;;;2.55;1.15;;;;;;;24.34;36.72;101841.53;5329228;27;20141;-71
2022/08/05 13:20:33;;;;;;;4.35;1.20;;;;;;;24.28;35.46;101846.63;5328196;28;20111;-69
2022/08/05 13:23:07;;;;;;;3.25;0.82;;;;;;;24.23;34.82;101844.03;5327519;28;20076;-69
2022/08/05 13:25:40;;;;;;;2.15;1.00;;;;;;;24.29;33.75;101846.28;5328015;27;20393;-68
2022/08/05 14:02:01;;;;;;;3.45;1.30;;;;;;;23.93;34.43;101860.53;5315959;27;1244225;-74
2022/08/05 14:07:28;;;;;;;1.58;1.08;;;;;;;24.18;34.73;101873.47;5354014;27;20030;-71
2022/08/05 14:09:59;;;;;;;2.42;1.65;;;;;;;24.35;35.00;101877.22;5355632;27;20039;-76
2022/08/05 14:12:34;;;;;;;1.58;0.70;;;;;;;24.27;35.00;101879.00;5352823;27;20164;-75
2022/08/05 14:15:06;;;;;;;1.27;1.02;;;;;;;24.19;34.73;101879.97;5359778;27;20465;-75
2022/08/05 14:17:38;;;;;;;4.70;1.20;;;;;;;23.93;35.40;101886.03;5344321;27;20050;-75
2022/08/05 14:20:09;;;;;;;1.48;0.90;;;;;;;23.61;36.05;101894.28;5345148;27;20015;-76
2022/08/05 14:22:42;;;;;;;2.05;1.00;;;;;;;23.49;36.11;101897.09;5363254;27;20027;-77
2022/08/05 14:25:13;;;;;;;3.05;0.82;;;;;;;23.47;36.15;101899.44;5351050;27;20016;-75
2022/08/05 14:27:47;;;;;;;2.45;1.00;;;;;;;23.46;36.97;101897.81;5342018;28;20030;-75
2022/08/05 14:30:21;;;;;;;3.60;1.05;;;;;;;23.62;36.90;101901.59;5341076;28;20177;-76
2022/08/05 14:32:52;;;;;;;1.83;1.10;;;;;;;23.84;35.93;101903.97;5340763;27;20026;-75
2022/08/05 14:35:24;;;;;;;7.78;7.07;;;;;;;24.04;35.31;101898.53;5355686;27;20042;-76
2022/08/05 14:37:55;;;;;;;1.50;1.13;;;;;;;23.94;35.03;101896.19;5348194;27;20024;-72
2022/08/05 14:40:26;;;;;;;2.55;1.67;;;;;;;23.89;34.10;101887.94;5354692;27;20035;-73
2022/08/05 14:42:58;;;;;;;2.70;1.23;;;;;;;24.27;34.32;101899.66;5344038;27;20108;-75
2022/08/05 14:45:29;;;;;;;2.83;0.85;;;;;;;24.32;34.36;101894.94;5335156;27;20523;-73
2022/08/05 14:48:03;;;;;;;5.45;0.90;;;;;;;24.30;34.31;101893.25;5329434;27;20398;-72
2022/08/05 14:50:34;;;;;;;3.33;1.50;;;;;;;24.33;35.11;101907.91;5340544;27;20386;-72
2022/08/05 14:53:06;;;;;;;4.57;3.90;;;;;;;24.20;36.28;101904.28;5333659;27;20023;-71
2022/08/05 14:55:49;;;;;;;6.78;3.60;;;;;;;23.91;37.74;101900.56;5327292;27;20103;-73
2022/08/05 14:58:20;;;;;;;1.90;1.10;;;;;;;24.20;38.17;101907.13;5339726;27;20030;-72
2022/08/05 15:00:52;;;;;;;1.80;0.80;;;;;;;24.01;38.43;101902.09;5327943;27;20031;-72
2022/08/05 15:03:23;;;;;;;39.22;35.75;;;;;;;24.20;38.88;101909.94;5332803;27;20072;-74
2022/08/05 15:05:54;;;;;;;5.03;3.22;;;;;;;23.97;38.78;101901.13;5326634;27;20059;-71
2022/08/05 15:08:26;;;;;;;3.15;1.20;;;;;;;23.75;38.82;101908.94;5325847;27;20051;-73
2022/08/05 15:10:57;;;;;;;2.13;1.20;;;;;;;23.63;38.93;101906.09;5333627;27;20042;-73
2022/08/05 15:13:28;;;;;;;3.28;1.08;;;;;;;23.89;39.06;101911.41;5337002;27;20461;-71
2022/08/05 15:16:00;;;;;;;2.90;0.90;;;;;;;23.65;39.17;101904.56;5337294;27;20506;-73
2022/08/05 15:18:33;;;;;;;2.42;1.10;;;;;;;24.02;39.08;101915.06;5327449;27;20111;-71
2022/08/05 15:21:07;;;;;;;2.10;1.02;;;;;;;23.70;37.96;101906.31;5327106;27;20466;-71
2022/08/05 15:23:38;;;;;;;1.65;1.08;;;;;;;23.85;38.40;101916.97;5327373;27;20027;-70
2022/08/05 15:26:10;;;;;;;3.92;0.98;;;;;;;23.50;37.93;101915.75;5326986;27;20537;-71
2022/08/05 15:28:41;;;;;;;1.20;0.82;;;;;;;23.42;38.47;101912.69;5335676;27;20123;-71
2022/08/05 15:31:13;;;;;;;1.85;1.00;;;;;;;23.43;39.02;101917.16;5325856;27;20035;-70
2022/08/05 15:33:44;;;;;;;1.25;0.98;;;;;;;23.64;38.30;101921.88;5333147;27;20023;-67
2022/08/05 15:36:15;;;;;;;2.10;1.02;;;;;;;23.42;37.65;101926.00;5337854;27;20030;-68
2022/08/05 15:38:49;;;;;;;56.88;46.53;;;;;;;23.70;37.63;101916.81;5340729;27;20104;-70
2022/08/05 15:41:22;;;;;;;4.28;3.03;;;;;;;23.75;37.67;101923.13;5342627;27;20031;-68
2022/08/05 15:43:57;;;;;;;1.40;0.63;;;;;;;23.72;37.72;101929.47;5341421;27;20145;-68
2022/08/05 15:46:28;;;;;;;4.30;1.07;;;;;;;23.74;37.29;101934.78;5330974;27;20080;-70
2022/08/05 15:49:00;;;;;;;3.63;1.70;;;;;;;23.75;36.88;101928.78;5338343;27;20305;-70
2022/08/05 15:51:31;;;;;;;1.88;0.90;;;;;;;23.51;37.14;101928.72;5333344;27;20015;-70
2022/08/05 15:54:05;;;;;;;1.40;0.80;;;;;;;23.21;38.20;101937.38;5325534;28;20027;-69
2022/08/05 15:56:36;;;;;;;1.05;0.70;;;;;;;23.17;38.38;101942.09;5346092;27;20023;-68
2022/08/05 15:59:13;;;;;;;1.88;1.00;;;;;;;23.04;39.03;101938.41;5336778;27;20030;-69
2022/08/05 16:01:45;;;;;;;4.25;1.17;;;;;;;23.29;38.88;101938.47;5325984;27;20046;-70
2022/08/05 16:04:22;;;;;;;4.32;0.82;;;;;;;23.11;39.36;101949.16;5334347;27;20051;-70
2022/08/05 16:06:53;;;;;;;6.05;1.23;;;;;;;23.18;39.81;101946.56;5332455;27;20089;-71
2022/08/05 16:09:28;;;;;;;2.30;1.00;;;;;;;23.00;39.56;101952.41;5334052;27;20030;-68
2022/08/05 16:12:01;;;;;;;1.37;0.90;;;;;;;22.89;40.05;101959.66;5331369;27;20397;-71
2022/08/05 16:14:33;;;;;;;2.15;0.98;;;;;;;22.80;40.87;101958.91;5341460;27;20401;-71
2022/08/05 16:17:04;;;;;;;2.63;0.88;;;;;;;22.89;41.34;101959.66;5333213;27;20023;-71
2022/08/05 16:19:35;;;;;;;3.90;0.90;;;;;;;22.98;41.62;101968.94;5329511;27;20046;-70
2022/08/05 16:22:07;;;;;;;1.95;0.90;;;;;;;22.88;40.63;101969.31;5328081;27;20024;-70
2022/08/05 16:24:40;;;;;;;5.07;1.05;;;;;;;22.88;41.23;101965.66;5341678;27;20030;-70
2022/08/05 16:27:11;;;;;;;4.32;0.88;;;;;;;22.92;41.38;101970.28;5328555;27;20027;-73
2022/08/05 16:29:43;;;;;;;3.70;1.30;;;;;;;22.80;42.70;101970.22;5342722;27;20042;-71
2022/08/05 16:32:14;;;;;;;1.90;0.93;;;;;;;22.56;43.38;101980.22;5341364;27;20076;-71
2022/08/05 16:34:45;;;;;;;4.57;1.23;;;;;;;22.50;43.82;101984.44;5337216;27;20378;-71
2022/08/05 16:37:16;;;;;;;4.85;1.17;;;;;;;22.56;43.94;101985.88;5338774;27;20099;-71
2022/08/05 16:39:48;;;;;;;5.22;1.45;;;;;;;22.65;44.52;101984.97;5333562;27;20386;-70
2022/08/05 16:42:19;;;;;;;36.00;32.45;;;;;;;22.49;44.61;101987.59;5325367;27;20539;-71
2022/08/05 16:44:53;;;;;;;2.97;1.52;;;;;;;22.20;44.22;101985.63;5329430;27;20054;-72
2022/08/05 16:47:27;;;;;;;1.83;1.40;;;;;;;22.23;44.54;101997.06;5342910;27;20039;-72
2022/08/05 16:49:59;;;;;;;2.45;1.00;;;;;;;22.53;44.16;101994.22;5333502;27;20035;-68
2022/08/05 16:52:32;;;;;;;2.85;1.20;;;;;;;22.55;44.12;102003.19;5333821;27;20031;-71
2022/08/05 16:55:04;;;;;;;3.80;1.10;;;;;;;22.29;44.09;102003.34;5330443;27;20023;-75
2022/08/05 16:57:37;;;;;;;5.32;1.20;;;;;;;22.24;44.21;102000.72;5326063;27;20388;-70
2022/08/05 17:00:09;;;;;;;2.72;1.33;;;;;;;22.36;43.20;102009.28;5338227;27;20046;-71
2022/08/05 17:02:41;;;;;;;3.45;1.30;;;;;;;22.28;43.30;102010.19;5326223;27;20092;-71
2022/08/05 17:05:12;;;;;;;2.20;1.00;;;;;;;22.36;43.45;102014.94;5345281;27;20023;-71
2022/08/05 17:07:44;;;;;;;5.00;1.95;;;;;;;22.36;43.40;102015.78;5326208;28;20020;-71
2022/08/05 17:10:15;;;;;;;5.50;1.40;;;;;;;22.65;42.87;102016.94;5334190;27;20110;-72
2022/08/05 17:12:48;;;;;;;2.60;1.40;;;;;;;22.87;42.55;102020.56;5328866;27;20024;-71
2022/08/05 17:15:19;;;;;;;5.00;1.00;;;;;;;22.73;42.42;102020.84;5329815;27;20465;-73
2022/08/05 17:17:50;;;;;;;1.70;1.00;;;;;;;22.95;42.56;102033.81;5333455;27;20089;-73
2022/08/05 17:20:21;;;;;;;3.17;1.20;;;;;;;22.70;42.52;102041.31;5338240;27;20085;-71
2022/08/05 17:22:56;;;;;;;3.78;1.38;;;;;;;23.22;42.25;102052.25;5325840;27;20036;-71
2022/08/05 17:25:27;;;;;;;3.70;1.23;;;;;;;23.08;42.12;102040.38;5330865;27;20055;-72
2022/08/05 17:27:59;;;;;;;8.73;2.15;;;;;;;22.98;42.31;102048.13;5329994;28;20337;-72
2022/08/05 17:30:30;;;;;;;3.15;1.25;;;;;;;22.94;42.05;102041.47;5335209;28;20031;-71
